sensor_id;sensor_type;location;lat;lon;timestamp;P1;durP1;ratioP1;P2;durP2;ratioP2
64915;SDS011;51427;-27.442;153.014;2023-08-17T00:02:11;6.13;;;2.30;;
64915;SDS011;51427;-27.442;153.014;2023-08-17T00:04:39;5.40;;;2.10;;
64915;SDS011;51427;-27.442;153.014;2023-08-17T00:07:07;3.67;;;1.88;;
64915;SDS011;51427;-27.442;153.014;2023-08-17T00:09:34;5.35;;;2.22;;
64915;SDS011;51427;-27.442;153.014;2023-08-17T00:12:02;6.32;;;2.42;;
64915;SDS011;51427;-27.442;153.014;2023-08-17T00:14:30;4.65;;;1.90;;
64915;SDS011;51427;-27.442;153.014;2023-08-17T00:16:57;3.70;;;2.90;;
64915;SDS011;51427;-27.442;153.014;2023-08-17T00:19:25;2.78;;;2.00;;
64915;SDS011;51427;-27.442;153.014;2023-08-17T00:21:53;6.78;;;2.42;;
64915;SDS011;51427;-27.442;153.014;2023-08-17T00:24:21;4.85;;;2.50;;
64915;SDS011;51427;-27.442;153.014;2023-08-17T00:26:49;4.63;;;2.22;;
64915;SDS011;51427;-27.442;153.014;2023-08-17T00:29:16;6.10;;;2.17;;
64915;SDS011;51427;-27.442;153.014;2023-08-17T00:31:44;6.50;;;2.80;;
64915;SDS011;51427;-27.442;153.014;2023-08-17T00:34:12;7.57;;;2.70;;
64915;SDS011;51427;-27.442;153.014;2023-08-17T00:36:39;3.90;;;2.17;;
64915;SDS011;51427;-27.442;153.014;2023-08-17T00:39:07;5.32;;;2.08;;
64915;SDS011;51427;-27.442;153.014;2023-08-17T00:41:34;4.30;;;2.47;;
64915;SDS011;51427;-27.442;153.014;2023-08-17T00:44:02;6.30;;;2.40;;
64915;SDS011;51427;-27.442;153.014;2023-08-17T00:46:30;6.07;;;2.15;;
64915;SDS011;51427;-27.442;153.014;2023-08-17T00:48:57;7.03;;;2.55;;
64915;SDS011;51427;-27.442;153.014;2023-08-17T00:51:26;5.40;;;2.40;;
64915;SDS011;51427;-27.442;153.014;2023-08-17T00:53:56;4.80;;;2.47;;
64915;SDS011;51427;-27.442;153.014;2023-08-17T00:56:26;4.80;;;2.10;;
64915;SDS011;51427;-27.442;153.014;2023-08-17T00:58:54;3.25;;;2.40;;
64915;SDS011;51427;-27.442;153.014;2023-08-17T01:01:22;3.28;;;2.10;;
64915;SDS011;51427;-27.442;153.014;2023-08-17T01:03:50;5.50;;;2.70;;
64915;SDS011;51427;-27.442;153.014;2023-08-17T01:06:18;7.47;;;2.50;;
64915;SDS011;51427;-27.442;153.014;2023-08-17T01:08:46;6.05;;;2.22;;
64915;SDS011;51427;-27.442;153.014;2023-08-17T01:11:20;4.50;;;2.40;;
64915;SDS011;51427;-27.442;153.014;2023-08-17T01:16:56;5.68;;;2.58;;
64915;SDS011;51427;-27.442;153.014;2023-08-17T01:19:47;3.95;;;2.40;;
64915;SDS011;51427;-27.442;153.014;2023-08-17T01:22:18;5.40;;;2.60;;
64915;SDS011;51427;-27.442;153.014;2023-08-17T01:24:49;6.75;;;2.40;;
64915;SDS011;51427;-27.442;153.014;2023-08-17T01:27:23;4.93;;;2.28;;
64915;SDS011;51427;-27.442;153.014;2023-08-17T01:29:51;4.82;;;2.38;;
64915;SDS011;51427;-27.442;153.014;2023-08-17T01:32:30;4.32;;;2.38;;
64915;SDS011;51427;-27.442;153.014;2023-08-17T01:38:07;6.13;;;2.40;;
64915;SDS011;51427;-27.442;153.014;2023-08-17T01:40:38;4.22;;;2.40;;
64915;SDS011;51427;-27.442;153.014;2023-08-17T01:43:08;5.13;;;2.78;;
64915;SDS011;51427;-27.442;153.014;2023-08-17T01:45:37;4.13;;;2.47;;
64915;SDS011;51427;-27.442;153.014;2023-08-17T01:48:05;7.05;;;2.85;;
64915;SDS011;51427;-27.442;153.014;2023-08-17T01:50:33;4.03;;;2.13;;
64915;SDS011;51427;-27.442;153.014;2023-08-17T01:53:00;7.80;;;2.50;;
64915;SDS011;51427;-27.442;153.014;2023-08-17T01:55:28;6.90;;;2.55;;
64915;SDS011;51427;-27.442;153.014;2023-08-17T01:57:55;6.57;;;2.55;;
64915;SDS011;51427;-27.442;153.014;2023-08-17T02:00:23;3.90;;;2.13;;
64915;SDS011;51427;-27.442;153.014;2023-08-17T02:02:50;8.85;;;2.90;;
64915;SDS011;51427;-27.442;153.014;2023-08-17T02:05:18;8.05;;;2.63;;
64915;SDS011;51427;-27.442;153.014;2023-08-17T02:07:46;6.28;;;2.33;;
64915;SDS011;51427;-27.442;153.014;2023-08-17T02:10:13;3.67;;;2.03;;
64915;SDS011;51427;-27.442;153.014;2023-08-17T02:12:41;4.75;;;2.20;;
64915;SDS011;51427;-27.442;153.014;2023-08-17T02:15:08;7.18;;;2.05;;
64915;SDS011;51427;-27.442;153.014;2023-08-17T02:17:36;5.97;;;2.30;;
64915;SDS011;51427;-27.442;153.014;2023-08-17T02:20:04;5.78;;;2.20;;
64915;SDS011;51427;-27.442;153.014;2023-08-17T02:22:32;4.70;;;2.00;;
64915;SDS011;51427;-27.442;153.014;2023-08-17T02:25:00;3.97;;;1.95;;
64915;SDS011;51427;-27.442;153.014;2023-08-17T02:27:27;7.47;;;2.10;;
64915;SDS011;51427;-27.442;153.014;2023-08-17T02:29:57;7.05;;;2.20;;
64915;SDS011;51427;-27.442;153.014;2023-08-17T02:32:25;4.18;;;2.05;;
64915;SDS011;51427;-27.442;153.014;2023-08-17T02:34:52;5.43;;;2.15;;
64915;SDS011;51427;-27.442;153.014;2023-08-17T02:37:20;4.65;;;2.00;;
64915;SDS011;51427;-27.442;153.014;2023-08-17T02:39:47;5.20;;;2.00;;
64915;SDS011;51427;-27.442;153.014;2023-08-17T02:42:15;5.22;;;2.20;;
64915;SDS011;51427;-27.442;153.014;2023-08-17T02:44:43;5.25;;;2.40;;
64915;SDS011;51427;-27.442;153.014;2023-08-17T02:47:10;7.70;;;2.13;;
64915;SDS011;51427;-27.442;153.014;2023-08-17T02:49:38;5.28;;;2.42;;
64915;SDS011;51427;-27.442;153.014;2023-08-17T02:52:05;7.38;;;2.55;;
64915;SDS011;51427;-27.442;153.014;2023-08-17T02:54:33;4.47;;;2.10;;
64915;SDS011;51427;-27.442;153.014;2023-08-17T02:57:01;4.70;;;2.28;;
64915;SDS011;51427;-27.442;153.014;2023-08-17T02:59:28;5.65;;;2.33;;
64915;SDS011;51427;-27.442;153.014;2023-08-17T03:01:56;7.35;;;2.53;;
64915;SDS011;51427;-27.442;153.014;2023-08-17T03:04:23;6.88;;;2.08;;
64915;SDS011;51427;-27.442;153.014;2023-08-17T03:06:51;5.55;;;2.38;;
64915;SDS011;51427;-27.442;153.014;2023-08-17T03:09:18;7.03;;;2.67;;
64915;SDS011;51427;-27.442;153.014;2023-08-17T03:11:46;5.30;;;2.45;;
64915;SDS011;51427;-27.442;153.014;2023-08-17T03:14:14;7.25;;;2.55;;
64915;SDS011;51427;-27.442;153.014;2023-08-17T03:16:41;7.43;;;2.63;;
64915;SDS011;51427;-27.442;153.014;2023-08-17T03:19:09;6.82;;;2.92;;
64915;SDS011;51427;-27.442;153.014;2023-08-17T03:21:37;8.82;;;2.70;;
64915;SDS011;51427;-27.442;153.014;2023-08-17T03:24:05;8.30;;;2.65;;
64915;SDS011;51427;-27.442;153.014;2023-08-17T03:26:33;4.88;;;2.40;;
64915;SDS011;51427;-27.442;153.014;2023-08-17T03:29:01;4.65;;;2.88;;
64915;SDS011;51427;-27.442;153.014;2023-08-17T03:31:28;8.77;;;2.80;;
64915;SDS011;51427;-27.442;153.014;2023-08-17T03:33:56;6.28;;;2.10;;
64915;SDS011;51427;-27.442;153.014;2023-08-17T03:36:25;6.03;;;1.95;;
64915;SDS011;51427;-27.442;153.014;2023-08-17T03:38:52;6.80;;;2.67;;
64915;SDS011;51427;-27.442;153.014;2023-08-17T03:41:21;4.68;;;1.88;;
64915;SDS011;51427;-27.442;153.014;2023-08-17T03:43:51;10.18;;;2.53;;
64915;SDS011;51427;-27.442;153.014;2023-08-17T03:46:18;6.93;;;2.40;;
64915;SDS011;51427;-27.442;153.014;2023-08-17T03:48:46;6.20;;;2.50;;
64915;SDS011;51427;-27.442;153.014;2023-08-17T03:51:13;7.50;;;2.33;;
64915;SDS011;51427;-27.442;153.014;2023-08-17T03:53:41;9.20;;;2.90;;
64915;SDS011;51427;-27.442;153.014;2023-08-17T03:56:09;6.95;;;2.33;;
64915;SDS011;51427;-27.442;153.014;2023-08-17T03:58:36;5.97;;;2.40;;
64915;SDS011;51427;-27.442;153.014;2023-08-17T04:01:04;6.60;;;2.55;;
64915;SDS011;51427;-27.442;153.014;2023-08-17T04:03:32;5.93;;;2.88;;
64915;SDS011;51427;-27.442;153.014;2023-08-17T04:06:08;5.82;;;2.30;;
64915;SDS011;51427;-27.442;153.014;2023-08-17T04:11:04;5.05;;;2.35;;
64915;SDS011;51427;-27.442;153.014;2023-08-17T04:13:32;6.88;;;2.65;;
64915;SDS011;51427;-27.442;153.014;2023-08-17T04:15:59;4.40;;;2.58;;
64915;SDS011;51427;-27.442;153.014;2023-08-17T04:18:27;7.38;;;2.78;;
64915;SDS011;51427;-27.442;153.014;2023-08-17T04:20:55;7.70;;;2.67;;
64915;SDS011;51427;-27.442;153.014;2023-08-17T04:23:22;6.32;;;2.30;;
64915;SDS011;51427;-27.442;153.014;2023-08-17T04:25:50;5.30;;;2.83;;
64915;SDS011;51427;-27.442;153.014;2023-08-17T04:28:18;4.90;;;2.13;;
64915;SDS011;51427;-27.442;153.014;2023-08-17T04:30:46;6.60;;;2.60;;
64915;SDS011;51427;-27.442;153.014;2023-08-17T04:33:13;5.68;;;2.25;;
64915;SDS011;51427;-27.442;153.014;2023-08-17T04:35:41;6.47;;;2.30;;
64915;SDS011;51427;-27.442;153.014;2023-08-17T04:38:12;7.38;;;2.75;;
64915;SDS011;51427;-27.442;153.014;2023-08-17T04:40:40;7.40;;;2.22;;
64915;SDS011;51427;-27.442;153.014;2023-08-17T04:43:09;5.22;;;2.53;;
64915;SDS011;51427;-27.442;153.014;2023-08-17T04:45:37;7.68;;;2.90;;
64915;SDS011;51427;-27.442;153.014;2023-08-17T04:48:05;4.50;;;2.05;;
64915;SDS011;51427;-27.442;153.014;2023-08-17T04:50:33;8.70;;;3.05;;
64915;SDS011;51427;-27.442;153.014;2023-08-17T04:53:00;4.90;;;2.67;;
64915;SDS011;51427;-27.442;153.014;2023-08-17T04:55:28;6.10;;;2.50;;
64915;SDS011;51427;-27.442;153.014;2023-08-17T04:57:57;7.28;;;3.05;;
64915;SDS011;51427;-27.442;153.014;2023-08-17T05:00:25;4.82;;;2.13;;
64915;SDS011;51427;-27.442;153.014;2023-08-17T05:02:56;5.97;;;2.55;;
64915;SDS011;51427;-27.442;153.014;2023-08-17T05:05:24;9.65;;;2.67;;
64915;SDS011;51427;-27.442;153.014;2023-08-17T05:07:56;6.95;;;2.65;;
64915;SDS011;51427;-27.442;153.014;2023-08-17T05:10:24;5.93;;;2.40;;
64915;SDS011;51427;-27.442;153.014;2023-08-17T05:12:51;8.95;;;3.22;;
64915;SDS011;51427;-27.442;153.014;2023-08-17T05:15:19;8.00;;;2.53;;
64915;SDS011;51427;-27.442;153.014;2023-08-17T05:17:46;5.63;;;2.50;;
64915;SDS011;51427;-27.442;153.014;2023-08-17T05:20:14;6.43;;;2.35;;
64915;SDS011;51427;-27.442;153.014;2023-08-17T05:22:42;7.88;;;2.80;;
64915;SDS011;51427;-27.442;153.014;2023-08-17T05:25:10;9.60;;;2.45;;
64915;SDS011;51427;-27.442;153.014;2023-08-17T05:27:37;8.52;;;2.53;;
64915;SDS011;51427;-27.442;153.014;2023-08-17T05:30:05;7.43;;;2.17;;
64915;SDS011;51427;-27.442;153.014;2023-08-17T05:32:33;6.43;;;2.58;;
64915;SDS011;51427;-27.442;153.014;2023-08-17T05:35:01;6.32;;;2.05;;
64915;SDS011;51427;-27.442;153.014;2023-08-17T05:37:29;9.68;;;3.10;;
64915;SDS011;51427;-27.442;153.014;2023-08-17T05:39:56;6.68;;;2.78;;
64915;SDS011;51427;-27.442;153.014;2023-08-17T05:42:24;10.05;;;2.63;;
64915;SDS011;51427;-27.442;153.014;2023-08-17T05:44:52;5.93;;;2.45;;
64915;SDS011;51427;-27.442;153.014;2023-08-17T05:47:19;5.03;;;2.10;;
64915;SDS011;51427;-27.442;153.014;2023-08-17T05:49:47;6.20;;;2.45;;
64915;SDS011;51427;-27.442;153.014;2023-08-17T05:52:14;6.53;;;2.63;;
64915;SDS011;51427;-27.442;153.014;2023-08-17T05:54:42;7.28;;;2.13;;
64915;SDS011;51427;-27.442;153.014;2023-08-17T05:57:10;5.60;;;2.38;;
64915;SDS011;51427;-27.442;153.014;2023-08-17T05:59:37;4.15;;;1.80;;
64915;SDS011;51427;-27.442;153.014;2023-08-17T06:02:05;4.55;;;2.20;;
64915;SDS011;51427;-27.442;153.014;2023-08-17T06:04:32;10.05;;;2.70;;
64915;SDS011;51427;-27.442;153.014;2023-08-17T06:07:00;5.18;;;2.10;;
64915;SDS011;51427;-27.442;153.014;2023-08-17T06:09:28;8.20;;;2.20;;
64915;SDS011;51427;-27.442;153.014;2023-08-17T06:11:55;7.60;;;2.25;;
64915;SDS011;51427;-27.442;153.014;2023-08-17T06:14:23;4.97;;;2.67;;
64915;SDS011;51427;-27.442;153.014;2023-08-17T06:16:50;3.30;;;2.03;;
64915;SDS011;51427;-27.442;153.014;2023-08-17T06:19:18;5.47;;;2.10;;
64915;SDS011;51427;-27.442;153.014;2023-08-17T06:21:46;3.95;;;2.05;;
64915;SDS011;51427;-27.442;153.014;2023-08-17T06:24:13;5.57;;;2.28;;
64915;SDS011;51427;-27.442;153.014;2023-08-17T06:26:41;7.53;;;2.42;;
64915;SDS011;51427;-27.442;153.014;2023-08-17T06:29:10;6.38;;;2.10;;
64915;SDS011;51427;-27.442;153.014;2023-08-17T06:31:37;7.65;;;2.20;;
64915;SDS011;51427;-27.442;153.014;2023-08-17T06:34:05;8.15;;;2.25;;
64915;SDS011;51427;-27.442;153.014;2023-08-17T06:36:32;4.20;;;2.30;;
64915;SDS011;51427;-27.442;153.014;2023-08-17T06:39:00;5.90;;;2.33;;
64915;SDS011;51427;-27.442;153.014;2023-08-17T06:41:28;7.13;;;2.33;;
64915;SDS011;51427;-27.442;153.014;2023-08-17T06:43:56;7.07;;;2.53;;
64915;SDS011;51427;-27.442;153.014;2023-08-17T06:46:24;7.57;;;2.40;;
64915;SDS011;51427;-27.442;153.014;2023-08-17T06:48:53;6.63;;;2.30;;
64915;SDS011;51427;-27.442;153.014;2023-08-17T06:51:21;6.93;;;2.10;;
64915;SDS011;51427;-27.442;153.014;2023-08-17T06:53:49;6.90;;;1.98;;
64915;SDS011;51427;-27.442;153.014;2023-08-17T06:56:16;7.70;;;2.42;;
64915;SDS011;51427;-27.442;153.014;2023-08-17T06:58:44;6.18;;;2.28;;
64915;SDS011;51427;-27.442;153.014;2023-08-17T07:01:11;8.32;;;2.15;;
64915;SDS011;51427;-27.442;153.014;2023-08-17T07:03:40;8.60;;;2.50;;
64915;SDS011;51427;-27.442;153.014;2023-08-17T07:06:08;7.60;;;2.28;;
64915;SDS011;51427;-27.442;153.014;2023-08-17T07:08:36;6.25;;;2.10;;
64915;SDS011;51427;-27.442;153.014;2023-08-17T07:11:04;6.13;;;2.15;;
64915;SDS011;51427;-27.442;153.014;2023-08-17T07:13:34;6.93;;;2.20;;
64915;SDS011;51427;-27.442;153.014;2023-08-17T07:16:02;7.85;;;2.50;;
64915;SDS011;51427;-27.442;153.014;2023-08-17T07:18:29;7.57;;;2.55;;
64915;SDS011;51427;-27.442;153.014;2023-08-17T07:20:57;11.50;;;3.20;;
64915;SDS011;51427;-27.442;153.014;2023-08-17T07:23:25;9.40;;;2.20;;
64915;SDS011;51427;-27.442;153.014;2023-08-17T07:25:52;10.57;;;2.90;;
64915;SDS011;51427;-27.442;153.014;2023-08-17T07:28:20;6.38;;;2.38;;
64915;SDS011;51427;-27.442;153.014;2023-08-17T07:30:47;8.82;;;2.50;;
64915;SDS011;51427;-27.442;153.014;2023-08-17T07:33:18;6.30;;;2.90;;
64915;SDS011;51427;-27.442;153.014;2023-08-17T07:35:45;8.98;;;3.10;;
64915;SDS011;51427;-27.442;153.014;2023-08-17T07:38:13;7.45;;;2.60;;
64915;SDS011;51427;-27.442;153.014;2023-08-17T07:40:40;7.05;;;2.53;;
64915;SDS011;51427;-27.442;153.014;2023-08-17T07:43:09;8.15;;;2.60;;
64915;SDS011;51427;-27.442;153.014;2023-08-17T07:45:37;10.65;;;3.22;;
64915;SDS011;51427;-27.442;153.014;2023-08-17T07:48:04;9.38;;;3.17;;
64915;SDS011;51427;-27.442;153.014;2023-08-17T07:50:32;7.78;;;3.00;;
64915;SDS011;51427;-27.442;153.014;2023-08-17T07:53:00;10.20;;;2.95;;
64915;SDS011;51427;-27.442;153.014;2023-08-17T07:55:28;7.97;;;2.70;;
64915;SDS011;51427;-27.442;153.014;2023-08-17T07:57:55;7.93;;;2.70;;
64915;SDS011;51427;-27.442;153.014;2023-08-17T08:00:23;5.10;;;2.38;;
64915;SDS011;51427;-27.442;153.014;2023-08-17T08:02:50;6.88;;;2.10;;
64915;SDS011;51427;-27.442;153.014;2023-08-17T08:05:18;6.63;;;2.58;;
64915;SDS011;51427;-27.442;153.014;2023-08-17T08:07:46;7.68;;;2.80;;
64915;SDS011;51427;-27.442;153.014;2023-08-17T08:10:13;5.13;;;2.42;;
64915;SDS011;51427;-27.442;153.014;2023-08-17T08:12:41;8.65;;;2.65;;
64915;SDS011;51427;-27.442;153.014;2023-08-17T08:15:09;7.60;;;2.70;;
64915;SDS011;51427;-27.442;153.014;2023-08-17T08:17:36;9.55;;;2.30;;
64915;SDS011;51427;-27.442;153.014;2023-08-17T08:20:05;8.32;;;2.67;;
64915;SDS011;51427;-27.442;153.014;2023-08-17T08:22:33;10.18;;;3.10;;
64915;SDS011;51427;-27.442;153.014;2023-08-17T08:25:01;8.65;;;3.15;;
64915;SDS011;51427;-27.442;153.014;2023-08-17T08:27:28;8.23;;;3.05;;
64915;SDS011;51427;-27.442;153.014;2023-08-17T08:29:56;9.90;;;3.22;;
64915;SDS011;51427;-27.442;153.014;2023-08-17T08:32:23;7.45;;;3.45;;
64915;SDS011;51427;-27.442;153.014;2023-08-17T08:34:51;13.13;;;2.83;;
64915;SDS011;51427;-27.442;153.014;2023-08-17T08:37:19;9.48;;;2.78;;
64915;SDS011;51427;-27.442;153.014;2023-08-17T08:39:49;8.75;;;3.03;;
64915;SDS011;51427;-27.442;153.014;2023-08-17T08:42:19;11.27;;;3.13;;
64915;SDS011;51427;-27.442;153.014;2023-08-17T08:44:49;6.70;;;2.53;;
64915;SDS011;51427;-27.442;153.014;2023-08-17T08:47:17;7.65;;;3.13;;
64915;SDS011;51427;-27.442;153.014;2023-08-17T08:49:58;9.25;;;3.08;;
64915;SDS011;51427;-27.442;153.014;2023-08-17T08:52:41;5.60;;;3.15;;
64915;SDS011;51427;-27.442;153.014;2023-08-17T08:55:19;8.65;;;2.75;;
64915;SDS011;51427;-27.442;153.014;2023-08-17T08:57:50;9.48;;;2.95;;
64915;SDS011;51427;-27.442;153.014;2023-08-17T09:00:20;11.05;;;3.00;;
64915;SDS011;51427;-27.442;153.014;2023-08-17T09:02:48;8.82;;;3.15;;
64915;SDS011;51427;-27.442;153.014;2023-08-17T09:05:17;10.73;;;3.28;;
64915;SDS011;51427;-27.442;153.014;2023-08-17T09:07:45;8.13;;;2.78;;
64915;SDS011;51427;-27.442;153.014;2023-08-17T09:10:16;11.82;;;3.22;;
64915;SDS011;51427;-27.442;153.014;2023-08-17T09:12:45;11.05;;;3.58;;
64915;SDS011;51427;-27.442;153.014;2023-08-17T09:15:13;12.07;;;3.53;;
64915;SDS011;51427;-27.442;153.014;2023-08-17T09:17:41;11.27;;;3.10;;
64915;SDS011;51427;-27.442;153.014;2023-08-17T09:20:10;7.82;;;2.90;;
64915;SDS011;51427;-27.442;153.014;2023-08-17T09:22:41;8.82;;;3.20;;
64915;SDS011;51427;-27.442;153.014;2023-08-17T09:25:10;8.60;;;2.72;;
64915;SDS011;51427;-27.442;153.014;2023-08-17T09:27:47;6.40;;;2.53;;
64915;SDS011;51427;-27.442;153.014;2023-08-17T09:30:15;9.60;;;3.42;;
64915;SDS011;51427;-27.442;153.014;2023-08-17T09:32:42;10.80;;;3.53;;
64915;SDS011;51427;-27.442;153.014;2023-08-17T09:35:10;9.18;;;3.28;;
64915;SDS011;51427;-27.442;153.014;2023-08-17T09:37:40;8.48;;;2.90;;
64915;SDS011;51427;-27.442;153.014;2023-08-17T09:40:08;10.63;;;3.10;;
64915;SDS011;51427;-27.442;153.014;2023-08-17T09:42:35;10.18;;;3.70;;
64915;SDS011;51427;-27.442;153.014;2023-08-17T09:45:05;14.45;;;4.10;;
64915;SDS011;51427;-27.442;153.014;2023-08-17T09:47:33;10.93;;;3.25;;
64915;SDS011;51427;-27.442;153.014;2023-08-17T09:50:03;8.27;;;3.10;;
64915;SDS011;51427;-27.442;153.014;2023-08-17T09:52:33;7.38;;;2.97;;
64915;SDS011;51427;-27.442;153.014;2023-08-17T09:55:06;15.57;;;3.83;;
64915;SDS011;51427;-27.442;153.014;2023-08-17T09:57:36;12.00;;;3.45;;
64915;SDS011;51427;-27.442;153.014;2023-08-17T10:00:05;8.68;;;3.63;;
64915;SDS011;51427;-27.442;153.014;2023-08-17T10:02:34;8.25;;;3.15;;
64915;SDS011;51427;-27.442;153.014;2023-08-17T10:05:02;10.15;;;3.50;;
64915;SDS011;51427;-27.442;153.014;2023-08-17T10:07:33;8.82;;;3.72;;
64915;SDS011;51427;-27.442;153.014;2023-08-17T10:10:04;11.18;;;3.45;;
64915;SDS011;51427;-27.442;153.014;2023-08-17T10:12:48;10.55;;;3.78;;
64915;SDS011;51427;-27.442;153.014;2023-08-17T10:15:30;8.50;;;3.15;;
64915;SDS011;51427;-27.442;153.014;2023-08-17T10:18:13;9.27;;;3.63;;
64915;SDS011;51427;-27.442;153.014;2023-08-17T10:21:02;5.35;;;2.45;;
64915;SDS011;51427;-27.442;153.014;2023-08-17T10:23:36;9.73;;;3.28;;
64915;SDS011;51427;-27.442;153.014;2023-08-17T10:26:04;9.48;;;3.13;;
64915;SDS011;51427;-27.442;153.014;2023-08-17T10:28:34;11.90;;;3.40;;
64915;SDS011;51427;-27.442;153.014;2023-08-17T10:31:02;8.45;;;3.50;;
64915;SDS011;51427;-27.442;153.014;2023-08-17T10:33:30;11.57;;;3.70;;
64915;SDS011;51427;-27.442;153.014;2023-08-17T10:35:59;10.93;;;3.78;;
64915;SDS011;51427;-27.442;153.014;2023-08-17T10:38:27;9.38;;;4.13;;
64915;SDS011;51427;-27.442;153.014;2023-08-17T10:41:16;11.05;;;3.75;;
64915;SDS011;51427;-27.442;153.014;2023-08-17T10:43:59;8.20;;;3.80;;
64915;SDS011;51427;-27.442;153.014;2023-08-17T10:46:36;9.63;;;3.40;;
64915;SDS011;51427;-27.442;153.014;2023-08-17T10:49:25;12.00;;;3.50;;
64915;SDS011;51427;-27.442;153.014;2023-08-17T10:52:03;10.15;;;3.30;;
64915;SDS011;51427;-27.442;153.014;2023-08-17T10:54:42;9.52;;;3.25;;
64915;SDS011;51427;-27.442;153.014;2023-08-17T10:57:27;10.30;;;3.67;;
64915;SDS011;51427;-27.442;153.014;2023-08-17T11:00:13;8.27;;;3.15;;
64915;SDS011;51427;-27.442;153.014;2023-08-17T11:02:51;8.50;;;3.22;;
64915;SDS011;51427;-27.442;153.014;2023-08-17T11:08:10;11.48;;;3.88;;
64915;SDS011;51427;-27.442;153.014;2023-08-17T11:11:28;13.20;;;4.35;;
64915;SDS011;51427;-27.442;153.014;2023-08-17T11:13:40;11.50;;;3.75;;
64915;SDS011;51427;-27.442;153.014;2023-08-17T11:16:12;9.10;;;3.60;;
64915;SDS011;51427;-27.442;153.014;2023-08-17T11:18:41;10.15;;;3.90;;
64915;SDS011;51427;-27.442;153.014;2023-08-17T11:21:10;9.18;;;3.72;;
64915;SDS011;51427;-27.442;153.014;2023-08-17T11:23:38;9.13;;;3.60;;
64915;SDS011;51427;-27.442;153.014;2023-08-17T11:26:06;12.82;;;4.22;;
64915;SDS011;51427;-27.442;153.014;2023-08-17T11:28:34;9.70;;;3.80;;
64915;SDS011;51427;-27.442;153.014;2023-08-17T11:31:07;9.20;;;4.03;;
64915;SDS011;51427;-27.442;153.014;2023-08-17T11:33:37;10.02;;;3.70;;
64915;SDS011;51427;-27.442;153.014;2023-08-17T11:36:06;6.80;;;3.38;;
64915;SDS011;51427;-27.442;153.014;2023-08-17T11:38:36;14.40;;;7.45;;
64915;SDS011;51427;-27.442;153.014;2023-08-17T11:41:06;17.15;;;7.85;;
64915;SDS011;51427;-27.442;153.014;2023-08-17T11:43:37;17.75;;;7.63;;
64915;SDS011;51427;-27.442;153.014;2023-08-17T11:46:04;17.45;;;7.38;;
64915;SDS011;51427;-27.442;153.014;2023-08-17T11:48:32;18.83;;;9.38;;
64915;SDS011;51427;-27.442;153.014;2023-08-17T11:51:00;14.48;;;7.13;;
64915;SDS011;51427;-27.442;153.014;2023-08-17T11:53:32;10.68;;;5.43;;
64915;SDS011;51427;-27.442;153.014;2023-08-17T11:56:01;15.85;;;5.20;;
64915;SDS011;51427;-27.442;153.014;2023-08-17T11:58:45;10.23;;;4.32;;
64915;SDS011;51427;-27.442;153.014;2023-08-17T12:01:13;10.52;;;4.82;;
64915;SDS011;51427;-27.442;153.014;2023-08-17T12:03:44;10.55;;;4.38;;
64915;SDS011;51427;-27.442;153.014;2023-08-17T12:06:11;9.52;;;4.30;;
64915;SDS011;51427;-27.442;153.014;2023-08-17T12:08:43;9.40;;;4.15;;
64915;SDS011;51427;-27.442;153.014;2023-08-17T12:11:15;10.57;;;4.13;;
64915;SDS011;51427;-27.442;153.014;2023-08-17T12:13:46;10.93;;;4.32;;
64915;SDS011;51427;-27.442;153.014;2023-08-17T12:16:19;7.22;;;3.83;;
64915;SDS011;51427;-27.442;153.014;2023-08-17T12:18:57;12.85;;;4.50;;
64915;SDS011;51427;-27.442;153.014;2023-08-17T12:21:24;6.53;;;4.18;;
64915;SDS011;51427;-27.442;153.014;2023-08-17T12:23:54;6.60;;;3.30;;
64915;SDS011;51427;-27.442;153.014;2023-08-17T12:26:22;6.43;;;3.63;;
64915;SDS011;51427;-27.442;153.014;2023-08-17T12:28:50;7.10;;;3.28;;
64915;SDS011;51427;-27.442;153.014;2023-08-17T12:31:21;11.90;;;3.63;;
64915;SDS011;51427;-27.442;153.014;2023-08-17T12:33:49;8.00;;;4.13;;
64915;SDS011;51427;-27.442;153.014;2023-08-17T12:36:18;7.68;;;3.67;;
64915;SDS011;51427;-27.442;153.014;2023-08-17T12:38:47;12.40;;;3.78;;
64915;SDS011;51427;-27.442;153.014;2023-08-17T12:41:14;8.38;;;3.38;;
64915;SDS011;51427;-27.442;153.014;2023-08-17T12:43:45;11.00;;;3.58;;
64915;SDS011;51427;-27.442;153.014;2023-08-17T12:46:13;6.90;;;3.50;;
64915;SDS011;51427;-27.442;153.014;2023-08-17T12:48:41;8.13;;;3.70;;
64915;SDS011;51427;-27.442;153.014;2023-08-17T12:51:08;6.95;;;3.38;;
64915;SDS011;51427;-27.442;153.014;2023-08-17T12:53:36;7.32;;;3.90;;
64915;SDS011;51427;-27.442;153.014;2023-08-17T12:56:04;7.18;;;3.75;;
64915;SDS011;51427;-27.442;153.014;2023-08-17T12:58:31;11.10;;;4.00;;
64915;SDS011;51427;-27.442;153.014;2023-08-17T13:00:59;11.18;;;4.25;;
64915;SDS011;51427;-27.442;153.014;2023-08-17T13:03:27;7.28;;;4.03;;
64915;SDS011;51427;-27.442;153.014;2023-08-17T13:05:55;8.80;;;3.88;;
64915;SDS011;51427;-27.442;153.014;2023-08-17T13:08:23;10.52;;;4.20;;
64915;SDS011;51427;-27.442;153.014;2023-08-17T13:10:53;9.23;;;4.28;;
64915;SDS011;51427;-27.442;153.014;2023-08-17T13:13:23;8.23;;;3.78;;
64915;SDS011;51427;-27.442;153.014;2023-08-17T13:15:51;5.78;;;3.80;;
64915;SDS011;51427;-27.442;153.014;2023-08-17T13:18:19;9.18;;;4.68;;
64915;SDS011;51427;-27.442;153.014;2023-08-17T13:20:47;13.13;;;4.40;;
64915;SDS011;51427;-27.442;153.014;2023-08-17T13:23:14;10.57;;;3.92;;
64915;SDS011;51427;-27.442;153.014;2023-08-17T13:25:42;9.18;;;4.10;;
64915;SDS011;51427;-27.442;153.014;2023-08-17T13:28:10;11.73;;;4.22;;
64915;SDS011;51427;-27.442;153.014;2023-08-17T13:30:38;10.13;;;4.40;;
64915;SDS011;51427;-27.442;153.014;2023-08-17T13:33:06;12.00;;;4.10;;
64915;SDS011;51427;-27.442;153.014;2023-08-17T13:35:34;8.25;;;4.18;;
64915;SDS011;51427;-27.442;153.014;2023-08-17T13:38:01;7.22;;;4.07;;
64915;SDS011;51427;-27.442;153.014;2023-08-17T13:40:30;9.38;;;4.10;;
64915;SDS011;51427;-27.442;153.014;2023-08-17T13:42:59;9.38;;;4.10;;
64915;SDS011;51427;-27.442;153.014;2023-08-17T13:45:28;11.13;;;4.07;;
64915;SDS011;51427;-27.442;153.014;2023-08-17T13:47:59;8.07;;;3.63;;
64915;SDS011;51427;-27.442;153.014;2023-08-17T13:50:26;7.97;;;4.15;;
64915;SDS011;51427;-27.442;153.014;2023-08-17T13:52:54;10.95;;;4.18;;
64915;SDS011;51427;-27.442;153.014;2023-08-17T13:55:22;9.43;;;3.97;;
64915;SDS011;51427;-27.442;153.014;2023-08-17T13:57:49;9.65;;;4.20;;
64915;SDS011;51427;-27.442;153.014;2023-08-17T14:00:18;8.05;;;3.97;;
64915;SDS011;51427;-27.442;153.014;2023-08-17T14:02:46;9.25;;;4.80;;
64915;SDS011;51427;-27.442;153.014;2023-08-17T14:05:13;6.53;;;4.13;;
64915;SDS011;51427;-27.442;153.014;2023-08-17T14:07:41;6.28;;;3.55;;
64915;SDS011;51427;-27.442;153.014;2023-08-17T14:10:09;8.50;;;3.90;;
64915;SDS011;51427;-27.442;153.014;2023-08-17T14:12:37;9.30;;;4.43;;
64915;SDS011;51427;-27.442;153.014;2023-08-17T14:15:05;8.60;;;4.55;;
64915;SDS011;51427;-27.442;153.014;2023-08-17T14:17:33;10.77;;;4.55;;
64915;SDS011;51427;-27.442;153.014;2023-08-17T14:20:00;8.68;;;4.03;;
64915;SDS011;51427;-27.442;153.014;2023-08-17T14:22:31;12.07;;;4.78;;
64915;SDS011;51427;-27.442;153.014;2023-08-17T14:24:59;8.60;;;4.40;;
64915;SDS011;51427;-27.442;153.014;2023-08-17T14:27:29;9.73;;;4.25;;
64915;SDS011;51427;-27.442;153.014;2023-08-17T14:29:57;11.50;;;4.93;;